sensor_id;sensor_type;location;lat;lon;timestamp;pressure;altitude;pressure_sealevel;temperature;humidity
52923;BME280;38796;42.702;23.306;2022-07-23T00:01:38;95506.91;;;21.38;55.17
52923;BME280;38796;42.702;23.306;2022-07-23T00:03:39;95511.13;;;21.47;54.32
52923;BME280;38796;42.702;23.306;2022-07-23T00:05:37;95517.69;;;21.44;54.20
52923;BME280;38796;42.702;23.306;2022-07-23T00:07:36;95516.25;;;21.48;53.86
52923;BME280;38796;42.702;23.306;2022-07-23T00:09:34;95507.41;;;21.48;53.96
52923;BME280;38796;42.702;23.306;2022-07-23T00:11:32;95513.34;;;21.43;54.07
52923;BME280;38796;42.702;23.306;2022-07-23T00:13:31;95514.84;;;21.52;53.91
52923;BME280;38796;42.702;23.306;2022-07-23T00:15:30;95504.72;;;21.48;53.50
52923;BME280;38796;42.702;23.306;2022-07-23T00:17:28;95518.03;;;21.34;53.90
52923;BME280;38796;42.702;23.306;2022-07-23T00:19:28;95514.50;;;21.34;54.28
52923;BME280;38796;42.702;23.306;2022-07-23T00:21:27;95512.34;;;21.23;54.95
52923;BME280;38796;42.702;23.306;2022-07-23T00:23:25;95514.16;;;21.16;55.03
52923;BME280;38796;42.702;23.306;2022-07-23T00:25:24;95523.72;;;21.03;55.31
52923;BME280;38796;42.702;23.306;2022-07-23T00:27:26;95521.44;;;21.00;55.48
52923;BME280;38796;42.702;23.306;2022-07-23T00:29:25;95520.56;;;20.93;56.21
52923;BME280;38796;42.702;23.306;2022-07-23T00:31:23;95521.69;;;20.84;56.25
52923;BME280;38796;42.702;23.306;2022-07-23T00:33:21;95512.97;;;20.75;56.57
52923;BME280;38796;42.702;23.306;2022-07-23T00:35:22;95521.81;;;20.76;56.49
52923;BME280;38796;42.702;23.306;2022-07-23T00:37:25;95519.41;;;20.81;56.45
52923;BME280;38796;42.702;23.306;2022-07-23T00:39:30;95529.03;;;20.75;56.46
52923;BME280;38796;42.702;23.306;2022-07-23T00:41:28;95519.16;;;20.76;56.84
52923;BME280;38796;42.702;23.306;2022-07-23T00:43:27;95524.44;;;20.91;56.06
52923;BME280;38796;42.702;23.306;2022-07-23T00:45:25;95523.81;;;20.88;56.51
52923;BME280;38796;42.702;23.306;2022-07-23T00:47:24;95520.88;;;20.83;56.65
52923;BME280;38796;42.702;23.306;2022-07-23T00:49:23;95521.69;;;20.84;56.80
52923;BME280;38796;42.702;23.306;2022-07-23T00:51:24;95527.09;;;20.91;56.46
52923;BME280;38796;42.702;23.306;2022-07-23T00:53:23;95525.91;;;20.93;56.32
52923;BME280;38796;42.702;23.306;2022-07-23T00:55:21;95520.47;;;20.86;56.75
52923;BME280;38796;42.702;23.306;2022-07-23T00:57:20;95527.91;;;20.84;56.51
52923;BME280;38796;42.702;23.306;2022-07-23T00:59:24;95520.63;;;20.78;56.64
52923;BME280;38796;42.702;23.306;2022-07-23T01:01:22;95526.56;;;20.74;56.98
52923;BME280;38796;42.702;23.306;2022-07-23T01:03:21;95519.59;;;20.58;57.66
52923;BME280;38796;42.702;23.306;2022-07-23T01:05:20;95518.22;;;20.47;58.13
52923;BME280;38796;42.702;23.306;2022-07-23T01:07:21;95521.38;;;20.36;58.58
52923;BME280;38796;42.702;23.306;2022-07-23T01:09:20;95517.63;;;20.30;58.61
52923;BME280;38796;42.702;23.306;2022-07-23T01:11:19;95522.91;;;20.24;58.88
52923;BME280;38796;42.702;23.306;2022-07-23T01:13:17;95525.94;;;20.21;59.04
52923;BME280;38796;42.702;23.306;2022-07-23T01:15:16;95522.25;;;20.22;59.09
52923;BME280;38796;42.702;23.306;2022-07-23T01:17:14;95519.94;;;20.19;59.24
52923;BME280;38796;42.702;23.306;2022-07-23T01:19:15;95521.34;;;20.14;59.33
52923;BME280;38796;42.702;23.306;2022-07-23T01:21:17;95522.72;;;20.10;59.68
52923;BME280;38796;42.702;23.306;2022-07-23T01:23:17;95517.66;;;20.01;60.28
52923;BME280;38796;42.702;23.306;2022-07-23T01:25:22;95518.50;;;20.01;60.29
52923;BME280;38796;42.702;23.306;2022-07-23T01:27:26;95519.41;;;20.08;59.75
52923;BME280;38796;42.702;23.306;2022-07-23T01:29:29;95517.97;;;20.06;59.93
52923;BME280;38796;42.702;23.306;2022-07-23T01:31:32;95516.72;;;20.08;60.26
52923;BME280;38796;42.702;23.306;2022-07-23T01:33:30;95513.34;;;20.00;60.29
52923;BME280;38796;42.702;23.306;2022-07-23T01:35:29;95515.19;;;19.99;60.49
52923;BME280;38796;42.702;23.306;2022-07-23T01:37:31;95505.13;;;20.01;59.98
52923;BME280;38796;42.702;23.306;2022-07-23T01:39:31;95512.41;;;20.07;59.81
52923;BME280;38796;42.702;23.306;2022-07-23T01:41:31;95514.81;;;20.02;60.05
52923;BME280;38796;42.702;23.306;2022-07-23T01:43:31;95508.38;;;19.97;60.19
52923;BME280;38796;42.702;23.306;2022-07-23T01:45:30;95513.09;;;19.95;60.40
52923;BME280;38796;42.702;23.306;2022-07-23T01:47:29;95514.16;;;20.00;60.23
52923;BME280;38796;42.702;23.306;2022-07-23T01:49:27;95515.09;;;20.07;60.23
52923;BME280;38796;42.702;23.306;2022-07-23T01:51:52;95506.03;;;20.08;60.05
52923;BME280;38796;42.702;23.306;2022-07-23T01:54:10;95513.53;;;19.98;60.42
52923;BME280;38796;42.702;23.306;2022-07-23T01:56:10;95512.63;;;19.91;60.72
52923;BME280;38796;42.702;23.306;2022-07-23T01:58:08;95508.75;;;19.93;60.71
52923;BME280;38796;42.702;23.306;2022-07-23T02:00:08;95512.19;;;19.87;60.93
52923;BME280;38796;42.702;23.306;2022-07-23T02:02:11;95509.88;;;19.84;60.89
52923;BME280;38796;42.702;23.306;2022-07-23T02:04:09;95518.88;;;19.83;61.05
52923;BME280;38796;42.702;23.306;2022-07-23T02:06:08;95512.00;;;19.74;61.25
52923;BME280;38796;42.702;23.306;2022-07-23T02:08:07;95519.19;;;19.74;61.39
52923;BME280;38796;42.702;23.306;2022-07-23T02:10:07;95507.84;;;19.72;61.32
52923;BME280;38796;42.702;23.306;2022-07-23T02:12:08;95510.59;;;19.78;60.76
52923;BME280;38796;42.702;23.306;2022-07-23T02:14:07;95513.63;;;19.75;60.82
52923;BME280;38796;42.702;23.306;2022-07-23T02:16:05;95522.41;;;19.69;61.20
52923;BME280;38796;42.702;23.306;2022-07-23T02:18:04;95524.63;;;19.65;61.26
52923;BME280;38796;42.702;23.306;2022-07-23T02:20:03;95517.09;;;19.61;61.34
52923;BME280;38796;42.702;23.306;2022-07-23T02:22:01;95516.19;;;19.54;61.48
52923;BME280;38796;42.702;23.306;2022-07-23T02:24:00;95512.69;;;19.53;61.63
52923;BME280;38796;42.702;23.306;2022-07-23T02:25:58;95517.47;;;19.43;61.88
52923;BME280;38796;42.702;23.306;2022-07-23T02:27:59;95513.81;;;19.44;61.69
52923;BME280;38796;42.702;23.306;2022-07-23T02:29:57;95524.66;;;19.42;61.76
52923;BME280;38796;42.702;23.306;2022-07-23T02:31:56;95519.22;;;19.36;62.15
52923;BME280;38796;42.702;23.306;2022-07-23T02:33:54;95514.06;;;19.34;61.97
52923;BME280;38796;42.702;23.306;2022-07-23T02:35:52;95515.91;;;19.34;61.74
52923;BME280;38796;42.702;23.306;2022-07-23T02:37:51;95515.16;;;19.40;61.38
52923;BME280;38796;42.702;23.306;2022-07-23T02:39:50;95527.59;;;19.33;61.80
52923;BME280;38796;42.702;23.306;2022-07-23T02:41:49;95522.88;;;19.20;62.00
52923;BME280;38796;42.702;23.306;2022-07-23T02:43:48;95520.38;;;19.18;62.38
52923;BME280;38796;42.702;23.306;2022-07-23T02:45:47;95515.44;;;19.15;62.39
52923;BME280;38796;42.702;23.306;2022-07-23T02:47:45;95521.22;;;19.04;62.59
52923;BME280;38796;42.702;23.306;2022-07-23T02:49:43;95528.78;;;18.92;63.03
52923;BME280;38796;42.702;23.306;2022-07-23T02:51:42;95528.78;;;18.92;63.28
52923;BME280;38796;42.702;23.306;2022-07-23T02:53:41;95529.44;;;18.94;63.06
52923;BME280;38796;42.702;23.306;2022-07-23T02:55:39;95540.72;;;18.82;63.44
52923;BME280;38796;42.702;23.306;2022-07-23T02:57:39;95531.25;;;18.79;63.64
52923;BME280;38796;42.702;23.306;2022-07-23T02:59:38;95536.78;;;18.69;63.81
52923;BME280;38796;42.702;23.306;2022-07-23T03:01:37;95547.44;;;18.69;63.89
52923;BME280;38796;42.702;23.306;2022-07-23T03:03:36;95545.69;;;18.62;64.19
52923;BME280;38796;42.702;23.306;2022-07-23T03:05:35;95550.22;;;18.53;64.76
52923;BME280;38796;42.702;23.306;2022-07-23T03:07:34;95548.78;;;18.42;64.89
52923;BME280;38796;42.702;23.306;2022-07-23T03:09:34;95553.47;;;18.40;65.07
52923;BME280;38796;42.702;23.306;2022-07-23T03:11:32;95548.16;;;18.40;65.16
52923;BME280;38796;42.702;23.306;2022-07-23T03:13:30;95554.00;;;18.36;65.52
52923;BME280;38796;42.702;23.306;2022-07-23T03:15:33;95554.50;;;18.31;65.56
52923;BME280;38796;42.702;23.306;2022-07-23T03:17:31;95557.84;;;18.33;65.55
52923;BME280;38796;42.702;23.306;2022-07-23T03:19:29;95554.84;;;18.36;65.77
52923;BME280;38796;42.702;23.306;2022-07-23T03:21:28;95557.31;;;18.38;65.56
52923;BME280;38796;42.702;23.306;2022-07-23T03:23:26;95562.66;;;18.38;65.61
52923;BME280;38796;42.702;23.306;2022-07-23T03:25:25;95563.78;;;18.43;65.44
52923;BME280;38796;42.702;23.306;2022-07-23T03:27:24;95558.97;;;18.39;65.43
52923;BME280;38796;42.702;23.306;2022-07-23T03:29:23;95562.50;;;18.39;65.80
52923;BME280;38796;42.702;23.306;2022-07-23T03:31:23;95564.63;;;18.44;65.70
52923;BME280;38796;42.702;23.306;2022-07-23T03:33:22;95564.91;;;18.49;65.51
52923;BME280;38796;42.702;23.306;2022-07-23T03:35:22;95573.56;;;18.51;65.61
52923;BME280;38796;42.702;23.306;2022-07-23T03:37:36;95568.88;;;18.53;65.69
52923;BME280;38796;42.702;23.306;2022-07-23T03:39:35;95573.50;;;18.59;65.63
52923;BME280;38796;42.702;23.306;2022-07-23T03:41:33;95574.94;;;18.70;65.18
52923;BME280;38796;42.702;23.306;2022-07-23T03:43:31;95571.34;;;18.86;64.89
52923;BME280;38796;42.702;23.306;2022-07-23T03:45:30;95570.97;;;18.97;64.57
52923;BME280;38796;42.702;23.306;2022-07-23T03:47:31;95565.47;;;19.13;63.94
52923;BME280;38796;42.702;23.306;2022-07-23T03:49:30;95566.53;;;19.27;63.63
52923;BME280;38796;42.702;23.306;2022-07-23T03:51:28;95564.50;;;19.67;62.09
52923;BME280;38796;42.702;23.306;2022-07-23T03:53:27;95572.75;;;19.57;62.09
52923;BME280;38796;42.702;23.306;2022-07-23T03:55:25;95568.00;;;19.67;61.87
52923;BME280;38796;42.702;23.306;2022-07-23T03:57:23;95562.81;;;20.10;60.47
52923;BME280;38796;42.702;23.306;2022-07-23T03:59:22;95562.16;;;20.38;59.62
52923;BME280;38796;42.702;23.306;2022-07-23T04:01:20;95572.72;;;20.46;58.93
52923;BME280;38796;42.702;23.306;2022-07-23T04:03:20;95569.28;;;20.67;58.55
52923;BME280;38796;42.702;23.306;2022-07-23T04:05:18;95564.50;;;20.84;57.86
52923;BME280;38796;42.702;23.306;2022-07-23T04:07:20;95570.38;;;21.16;57.05
52923;BME280;38796;42.702;23.306;2022-07-23T04:09:19;95566.34;;;21.48;55.84
52923;BME280;38796;42.702;23.306;2022-07-23T04:11:17;95571.16;;;22.28;53.34
52923;BME280;38796;42.702;23.306;2022-07-23T04:13:16;95571.06;;;22.43;52.50
52923;BME280;38796;42.702;23.306;2022-07-23T04:15:14;95570.72;;;22.66;52.02
52923;BME280;38796;42.702;23.306;2022-07-23T04:17:12;95563.41;;;23.08;51.32
52923;BME280;38796;42.702;23.306;2022-07-23T04:19:13;95567.94;;;23.61;49.39
52923;BME280;38796;42.702;23.306;2022-07-23T04:21:24;95567.94;;;23.47;49.44
52923;BME280;38796;42.702;23.306;2022-07-23T04:23:22;95571.66;;;23.40;49.99
52923;BME280;38796;42.702;23.306;2022-07-23T04:25:22;95567.97;;;23.74;48.98
52923;BME280;38796;42.702;23.306;2022-07-23T04:27:21;95571.69;;;23.73;49.31
52923;BME280;38796;42.702;23.306;2022-07-23T04:29:19;95570.44;;;23.76;49.31
52923;BME280;38796;42.702;23.306;2022-07-23T04:31:17;95576.34;;;24.17;48.41
52923;BME280;38796;42.702;23.306;2022-07-23T04:33:16;95571.38;;;24.21;48.21
52923;BME280;38796;42.702;23.306;2022-07-23T04:35:18;95570.63;;;24.59;47.74
52923;BME280;38796;42.702;23.306;2022-07-23T04:37:17;95578.56;;;24.34;48.26
52923;BME280;38796;42.702;23.306;2022-07-23T04:39:15;95568.03;;;24.32;48.41
52923;BME280;38796;42.702;23.306;2022-07-23T04:41:13;95571.16;;;24.16;48.53
52923;BME280;38796;42.702;23.306;2022-07-23T04:43:12;95575.69;;;24.29;48.12
52923;BME280;38796;42.702;23.306;2022-07-23T04:45:15;95577.91;;;24.52;47.97
52923;BME280;38796;42.702;23.306;2022-07-23T04:47:14;95575.81;;;23.69;49.69
52923;BME280;38796;42.702;23.306;2022-07-23T04:49:14;95579.09;;;23.64;50.20
52923;BME280;38796;42.702;23.306;2022-07-23T04:51:16;95587.78;;;23.53;50.60
52923;BME280;38796;42.702;23.306;2022-07-23T04:53:15;95584.50;;;23.71;50.57
52923;BME280;38796;42.702;23.306;2022-07-23T04:55:17;95592.16;;;23.41;51.02
52923;BME280;38796;42.702;23.306;2022-07-23T04:57:15;95592.75;;;23.43;51.15
52923;BME280;38796;42.702;23.306;2022-07-23T04:59:14;95587.38;;;23.49;50.88
52923;BME280;38796;42.702;23.306;2022-07-23T05:01:13;95591.34;;;23.67;50.52
52923;BME280;38796;42.702;23.306;2022-07-23T05:03:12;95585.72;;;23.88;50.81
52923;BME280;38796;42.702;23.306;2022-07-23T05:05:10;95588.19;;;23.96;49.75
52923;BME280;38796;42.702;23.306;2022-07-23T05:07:12;95582.00;;;23.49;50.62
52923;BME280;38796;42.702;23.306;2022-07-23T05:09:10;95575.81;;;23.69;50.98
52923;BME280;38796;42.702;23.306;2022-07-23T05:11:09;95583.25;;;23.60;50.85
52923;BME280;38796;42.702;23.306;2022-07-23T05:13:07;95581.59;;;23.53;51.15
52923;BME280;38796;42.702;23.306;2022-07-23T05:15:06;95589.25;;;23.42;50.96
52923;BME280;38796;42.702;23.306;2022-07-23T05:17:05;95589.84;;;23.18;51.16
52923;BME280;38796;42.702;23.306;2022-07-23T05:19:04;95588.13;;;22.90;51.13
52923;BME280;38796;42.702;23.306;2022-07-23T05:21:05;95590.88;;;23.17;51.69
52923;BME280;38796;42.702;23.306;2022-07-23T05:23:05;95588.81;;;23.39;50.83
52923;BME280;38796;42.702;23.306;2022-07-23T05:25:04;95590.88;;;23.50;50.79
52923;BME280;38796;42.702;23.306;2022-07-23T05:27:03;95592.75;;;23.96;50.21
52923;BME280;38796;42.702;23.306;2022-07-23T05:29:01;95586.47;;;24.15;49.20
52923;BME280;38796;42.702;23.306;2022-07-23T05:31:00;95580.44;;;24.40;48.00
52923;BME280;38796;42.702;23.306;2022-07-23T05:32:58;95587.03;;;24.37;47.95
52923;BME280;38796;42.702;23.306;2022-07-23T05:34:57;95583.53;;;24.30;48.21
52923;BME280;38796;42.702;23.306;2022-07-23T05:36:55;95583.63;;;24.04;48.64
52923;BME280;38796;42.702;23.306;2022-07-23T05:38:55;95588.22;;;24.61;47.61
52923;BME280;38796;42.702;23.306;2022-07-23T05:40:55;95591.38;;;24.45;47.70
52923;BME280;38796;42.702;23.306;2022-07-23T05:42:53;95588.09;;;24.36;47.66
52923;BME280;38796;42.702;23.306;2022-07-23T05:44:52;95591.00;;;24.86;47.56
52923;BME280;38796;42.702;23.306;2022-07-23T05:46:50;95588.38;;;25.43;46.50
52923;BME280;38796;42.702;23.306;2022-07-23T05:48:51;95589.69;;;25.59;45.90
52923;BME280;38796;42.702;23.306;2022-07-23T05:51:09;95584.28;;;26.09;44.59
52923;BME280;38796;42.702;23.306;2022-07-23T05:53:08;95580.84;;;26.20;43.27
52923;BME280;38796;42.702;23.306;2022-07-23T05:55:28;95589.22;;;25.94;44.80
52923;BME280;38796;42.702;23.306;2022-07-23T05:57:28;95592.88;;;25.49;45.61
52923;BME280;38796;42.702;23.306;2022-07-23T05:59:26;95592.56;;;25.89;44.71
52923;BME280;38796;42.702;23.306;2022-07-23T06:01:25;95586.38;;;26.07;43.74
52923;BME280;38796;42.702;23.306;2022-07-23T06:03:35;95579.56;;;25.86;44.48
52923;BME280;38796;42.702;23.306;2022-07-23T06:05:34;95587.81;;;26.09;43.11
52923;BME280;38796;42.702;23.306;2022-07-23T06:07:32;95581.72;;;26.14;43.42
52923;BME280;38796;42.702;23.306;2022-07-23T06:09:32;95583.09;;;26.05;44.17
52923;BME280;38796;42.702;23.306;2022-07-23T06:11:31;95576.38;;;25.64;43.61
52923;BME280;38796;42.702;23.306;2022-07-23T06:13:30;95579.31;;;25.87;44.64
52923;BME280;38796;42.702;23.306;2022-07-23T06:15:29;95577.34;;;26.56;42.64
52923;BME280;38796;42.702;23.306;2022-07-23T06:17:30;95579.81;;;26.76;42.48
52923;BME280;38796;42.702;23.306;2022-07-23T06:19:29;95572.09;;;26.92;41.95
52923;BME280;38796;42.702;23.306;2022-07-23T06:21:28;95583.16;;;27.20;41.58
52923;BME280;38796;42.702;23.306;2022-07-23T06:23:45;95576.50;;;27.35;41.19
52923;BME280;38796;42.702;23.306;2022-07-23T06:25:43;95580.41;;;26.90;42.27
52923;BME280;38796;42.702;23.306;2022-07-23T06:27:45;95579.84;;;26.58;42.62
52923;BME280;38796;42.702;23.306;2022-07-23T06:29:45;95570.75;;;26.52;43.57
52923;BME280;38796;42.702;23.306;2022-07-23T06:31:44;95578.97;;;26.57;43.69
52923;BME280;38796;42.702;23.306;2022-07-23T06:33:44;95571.19;;;26.31;43.65
52923;BME280;38796;42.702;23.306;2022-07-23T06:35:43;95567.03;;;26.28;43.50
52923;BME280;38796;42.702;23.306;2022-07-23T06:37:41;95576.34;;;26.32;43.78
52923;BME280;38796;42.702;23.306;2022-07-23T06:39:42;95574.13;;;26.48;43.63
52923;BME280;38796;42.702;23.306;2022-07-23T06:41:41;95571.63;;;26.65;43.95
52923;BME280;38796;42.702;23.306;2022-07-23T06:43:48;95569.84;;;26.58;43.67
52923;BME280;38796;42.702;23.306;2022-07-23T06:45:47;95571.22;;;26.79;43.42
52923;BME280;38796;42.702;23.306;2022-07-23T06:47:45;95569.81;;;27.07;41.38
52923;BME280;38796;42.702;23.306;2022-07-23T06:49:44;95570.13;;;26.99;41.59
52923;BME280;38796;42.702;23.306;2022-07-23T06:51:42;95568.59;;;26.91;41.80
52923;BME280;38796;42.702;23.306;2022-07-23T06:53:40;95575.50;;;26.87;42.31
52923;BME280;38796;42.702;23.306;2022-07-23T06:55:38;95559.78;;;27.26;41.17
52923;BME280;38796;42.702;23.306;2022-07-23T06:57:37;95567.03;;;26.83;41.84
52923;BME280;38796;42.702;23.306;2022-07-23T06:59:37;95565.78;;;26.98;42.34
52923;BME280;38796;42.702;23.306;2022-07-23T07:01:38;95563.34;;;27.08;42.28
52923;BME280;38796;42.702;23.306;2022-07-23T07:03:37;95567.84;;;27.14;42.86
52923;BME280;38796;42.702;23.306;2022-07-23T07:05:35;95559.13;;;27.42;42.16
52923;BME280;38796;42.702;23.306;2022-07-23T07:07:34;95552.81;;;27.84;40.84
52923;BME280;38796;42.702;23.306;2022-07-23T07:09:33;95554.34;;;28.03;40.34
52923;BME280;38796;42.702;23.306;2022-07-23T07:11:31;95558.00;;;27.85;40.29
52923;BME280;38796;42.702;23.306;2022-07-23T07:13:29;95555.28;;;27.73;39.60
52923;BME280;38796;42.702;23.306;2022-07-23T07:15:29;95551.97;;;27.95;39.78
52923;BME280;38796;42.702;23.306;2022-07-23T07:17:28;95554.91;;;28.40;37.80
52923;BME280;38796;42.702;23.306;2022-07-23T07:19:26;95554.13;;;28.97;36.41
52923;BME280;38796;42.702;23.306;2022-07-23T07:21:24;95558.22;;;29.11;36.68
52923;BME280;38796;42.702;23.306;2022-07-23T07:23:23;95545.75;;;29.27;36.64
52923;BME280;38796;42.702;23.306;2022-07-23T07:25:21;95546.25;;;29.58;35.22
52923;BME280;38796;42.702;23.306;2022-07-23T07:27:19;95542.06;;;29.84;35.31
52923;BME280;38796;42.702;23.306;2022-07-23T07:29:18;95545.34;;;29.86;35.15
52923;BME280;38796;42.702;23.306;2022-07-23T07:31:17;95544.22;;;29.82;35.32
52923;BME280;38796;42.702;23.306;2022-07-23T07:33:16;95543.38;;;29.48;35.86
52923;BME280;38796;42.702;23.306;2022-07-23T07:35:14;95536.31;;;29.30;37.60
52923;BME280;38796;42.702;23.306;2022-07-23T07:37:12;95536.06;;;29.82;35.36
52923;BME280;38796;42.702;23.306;2022-07-23T07:39:11;95532.19;;;29.95;34.86
52923;BME280;38796;42.702;23.306;2022-07-23T07:41:09;95535.13;;;30.10;34.56
52923;BME280;38796;42.702;23.306;2022-07-23T07:43:07;95532.03;;;30.62;33.95
52923;BME280;38796;42.702;23.306;2022-07-23T07:45:07;95525.44;;;30.80;33.26
52923;BME280;38796;42.702;23.306;2022-07-23T07:47:06;95530.00;;;31.01;33.14
52923;BME280;38796;42.702;23.306;2022-07-23T07:49:06;95526.63;;;30.67;33.90
52923;BME280;38796;42.702;23.306;2022-07-23T07:51:11;95529.31;;;30.84;34.41
52923;BME280;38796;42.702;23.306;2022-07-23T07:53:10;95528.19;;;31.07;33.24
52923;BME280;38796;42.702;23.306;2022-07-23T07:55:10;95517.75;;;31.90;31.62
52923;BME280;38796;42.702;23.306;2022-07-23T07:57:09;95519.63;;;32.37;30.43
52923;BME280;38796;42.702;23.306;2022-07-23T07:59:08;95518.34;;;32.45;30.10
52923;BME280;38796;42.702;23.306;2022-07-23T08:01:07;95519.25;;;32.66;30.42
52923;BME280;38796;42.702;23.306;2022-07-23T08:03:07;95520.03;;;32.03;30.66
52923;BME280;38796;42.702;23.306;2022-07-23T08:05:06;95520.16;;;32.34;31.53
52923;BME280;38796;42.702;23.306;2022-07-23T08:07:05;95521.06;;;33.33;29.00
52923;BME280;38796;42.702;23.306;2022-07-23T08:09:03;95519.41;;;34.04;28.33
52923;BME280;38796;42.702;23.306;2022-07-23T08:11:01;95514.59;;;35.20;26.47
52923;BME280;38796;42.702;23.306;2022-07-23T08:12:59;95511.56;;;35.61;25.87
52923;BME280;38796;42.702;23.306;2022-07-23T08:14:58;95510.94;;;36.03;25.26
52923;BME280;38796;42.702;23.306;2022-07-23T08:16:56;95507.53;;;36.65;24.78
52923;BME280;38796;42.702;23.306;2022-07-23T08:19:12;95514.16;;;37.39;24.30
52923;BME280;38796;42.702;23.306;2022-07-23T08:21:11;95515.03;;;38.05;23.07
52923;BME280;38796;42.702;23.306;2022-07-23T08:23:09;95507.84;;;39.42;21.63
52923;BME280;38796;42.702;23.306;2022-07-23T08:25:08;95507.13;;;38.59;22.82
52923;BME280;38796;42.702;23.306;2022-07-23T08:27:06;95501.22;;;38.93;22.24
52923;BME280;38796;42.702;23.306;2022-07-23T08:29:05;95502.88;;;38.66;22.28
52923;BME280;38796;42.702;23.306;2022-07-23T08:31:03;95505.69;;;38.20;23.14
52923;BME280;38796;42.702;23.306;2022-07-23T08:33:03;95502.00;;;39.07;22.02
52923;BME280;38796;42.702;23.306;2022-07-23T08:35:05;95506.97;;;39.78;21.47
52923;BME280;38796;42.702;23.306;2022-07-23T08:37:03;95502.53;;;39.46;21.49
52923;BME280;38796;42.702;23.306;2022-07-23T08:39:01;95503.81;;;39.12;21.96
52923;BME280;38796;42.702;23.306;2022-07-23T08:41:00;95501.38;;;39.10;22.54
52923;BME280;38796;42.702;23.306;2022-07-23T08:42:59;95496.13;;;38.86;22.07
52923;BME280;38796;42.702;23.306;2022-07-23T08:44:57;95490.22;;;38.93;22.33
52923;BME280;38796;42.702;23.306;2022-07-23T08:46:56;95495.63;;;38.70;22.51
52923;BME280;38796;42.702;23.306;2022-07-23T08:48:54;95500.41;;;38.23;23.08
52923;BME280;38796;42.702;23.306;2022-07-23T08:50:56;95495.66;;;37.96;22.54
52923;BME280;38796;42.702;23.306;2022-07-23T08:52:54;95487.09;;;37.14;23.61
52923;BME280;38796;42.702;23.306;2022-07-23T08:54:54;95484.09;;;38.68;23.25
52923;BME280;38796;42.702;23.306;2022-07-23T08:56:53;95483.72;;;39.48;22.27
52923;BME280;38796;42.702;23.306;2022-07-23T08:58:53;95486.09;;;39.04;22.31
52923;BME280;38796;42.702;23.306;2022-07-23T09:00:52;95487.88;;;39.23;22.16
52923;BME280;38796;42.702;23.306;2022-07-23T09:02:50;95486.00;;;39.46;22.03
52923;BME280;38796;42.702;23.306;2022-07-23T09:04:49;95481.94;;;40.68;20.64
52923;BME280;38796;42.702;23.306;2022-07-23T09:06:48;95478.94;;;41.04;20.10
52923;BME280;38796;42.702;23.306;2022-07-23T09:08:47;95483.78;;;40.41;20.69
52923;BME280;38796;42.702;23.306;2022-07-23T09:10:51;95483.19;;;41.62;19.77
52923;BME280;38796;42.702;23.306;2022-07-23T09:12:49;95469.50;;;40.39;20.14
52923;BME280;38796;42.702;23.306;2022-07-23T09:14:48;95482.34;;;40.12;20.96
52923;BME280;38796;42.702;23.306;2022-07-23T09:16:46;95481.75;;;40.64;20.40
52923;BME280;38796;42.702;23.306;2022-07-23T09:18:46;95481.69;;;41.04;20.22
52923;BME280;38796;42.702;23.306;2022-07-23T09:20:44;95477.66;;;41.53;19.36
52923;BME280;38796;42.702;23.306;2022-07-23T09:22:47;95481.31;;;42.10;18.38
52923;BME280;38796;42.702;23.306;2022-07-23T09:27:16;95482.91;;;43.59;16.95
52923;BME280;38796;42.702;23.306;2022-07-23T09:29:17;95479.28;;;44.25;16.44
52923;BME280;38796;42.702;23.306;2022-07-23T09:31:16;95472.97;;;43.16;17.09
52923;BME280;38796;42.702;23.306;2022-07-23T09:33:15;95476.38;;;42.62;17.00
52923;BME280;38796;42.702;23.306;2022-07-23T09:35:13;95469.06;;;42.58;17.14
52923;BME280;38796;42.702;23.306;2022-07-23T09:37:13;95475.34;;;42.37;17.28
52923;BME280;38796;42.702;23.306;2022-07-23T09:39:15;95469.81;;;41.82;18.19
52923;BME280;38796;42.702;23.306;2022-07-23T09:41:15;95462.69;;;42.95;17.76
52923;BME280;38796;42.702;23.306;2022-07-23T09:43:25;95452.56;;;41.93;17.99
52923;BME280;38796;42.702;23.306;2022-07-23T09:45:31;95453.25;;;40.95;18.14
52923;BME280;38796;42.702;23.306;2022-07-23T09:47:31;95447.72;;;40.77;18.64
52923;BME280;38796;42.702;23.306;2022-07-23T09:49:30;95455.00;;;40.82;18.57
52923;BME280;38796;42.702;23.306;2022-07-23T09:51:28;95444.84;;;40.43;18.74
52923;BME280;38796;42.702;23.306;2022-07-23T09:53:30;95447.41;;;40.88;18.15
52923;BME280;38796;42.702;23.306;2022-07-23T09:55:33;95444.34;;;41.33;18.15
52923;BME280;38796;42.702;23.306;2022-07-23T09:57:33;95448.66;;;41.94;17.72
52923;BME280;38796;42.702;23.306;2022-07-23T09:59:34;95448.56;;;41.47;17.82
52923;BME280;38796;42.702;23.306;2022-07-23T10:01:33;95441.56;;;41.33;17.66
52923;BME280;38796;42.702;23.306;2022-07-23T10:03:32;95436.47;;;41.78;17.78
52923;BME280;38796;42.702;23.306;2022-07-23T10:06:01;95439.22;;;42.42;17.46
52923;BME280;38796;42.702;23.306;2022-07-23T10:08:01;95430.53;;;42.53;17.34
52923;BME280;38796;42.702;23.306;2022-07-23T10:10:09;95437.00;;;41.71;16.88
52923;BME280;38796;42.702;23.306;2022-07-23T10:12:27;95430.13;;;42.33;16.62
52923;BME280;38796;42.702;23.306;2022-07-23T10:14:38;95430.72;;;41.45;17.13
52923;BME280;38796;42.702;23.306;2022-07-23T10:16:37;95425.16;;;41.53;16.66
52923;BME280;38796;42.702;23.306;2022-07-23T10:18:36;95429.88;;;41.18;17.50
52923;BME280;38796;42.702;23.306;2022-07-23T10:20:41;95420.09;;;40.77;17.17
52923;BME280;38796;42.702;23.306;2022-07-23T10:22:44;95414.47;;;41.09;17.16
52923;BME280;38796;42.702;23.306;2022-07-23T10:24:53;95419.97;;;41.26;16.95
52923;BME280;38796;42.702;23.306;2022-07-23T10:27:04;95412.25;;;42.31;16.63
52923;BME280;38796;42.702;23.306;2022-07-23T10:29:16;95420.41;;;41.71;15.46
52923;BME280;38796;42.702;23.306;2022-07-23T10:31:31;95414.75;;;41.50;16.24